Terminal Aerodrome Forecast
Issued by NWS North Platte, NE

Home | Current Version | Previous Version | Text Only | Print | Product List | Glossary On
Versions: 1 2 3 4 5 6 7 8 9 10 11 12 13 14
023
FTUS43 KLBF 240215 AAA
TAFLBF
TAF AMD
KLBF 240215Z 2402/2424 32008KT P6SM SKC WS020/34045KT
     FM241000 32014G22KT P6SM SKC
     FM241500 32017G24KT P6SM SKC
     FM241800 33023G28KT P6SM SKC=

USA.gov is the U.S. government's official web portal to all federal, state and local government web resources and services.